Time,TemperatureF,DewpointF,PressureIn,WindDirection,WindDirectionDegrees,WindSpeedMPH,WindSpeedGustMPH,Humidity,HourlyPrecipIn,Conditions,Clouds,dailyrainin,SoftwareType,DateUTC
2013-03-06 00:00:00,-999.0,-99.9,30.32,North,-999,-999.0,-999.0,-999,-99.99,,,0.00,weatherlink.com 1.10,2013-03-06 07:00:00,
2013-03-06 00:15:00,-999.0,-99.9,30.29,North,-999,-999.0,-999.0,-999,-99.99,,,0.00,weatherlink.com 1.10,2013-03-06 07:15:00,
2013-03-06 00:30:00,29.5,10.0,30.29,WSW,254,0.0,-999.0,44,-99.99,,,0.00,weatherlink.com 1.10,2013-03-06 07:30:00,
2013-03-06 00:45:00,29.5,10.0,30.47,WSW,254,1.0,-999.0,44,-99.99,,,0.00,weatherlink.com 1.10,2013-03-06 07:45:00,
2013-03-06 01:00:00,29.5,10.0,30.47,WSW,254,0.0,-999.0,44,-99.99,,,0.00,weatherlink.com 1.10,2013-03-06 08:00:00,
2013-03-06 01:15:00,29.7,11.0,30.45,WSW,254,0.0,-999.0,46,-99.99,,,0.00,weatherlink.com 1.10,2013-03-06 08:15:00,
2013-03-06 01:30:00,29.3,9.0,30.45,WSW,254,0.0,-999.0,43,-99.99,,,0.00,weatherlink.com 1.10,2013-03-06 08:30:00,
2013-03-06 01:45:00,29.1,12.0,30.45,WSW,254,0.0,-999.0,48,-99.99,,,0.00,weatherlink.com 1.10,2013-03-06 08:45:00,
2013-03-06 02:00:00,28.8,9.0,30.44,WSW,254,0.0,-999.0,43,-99.99,,,0.00,weatherlink.com 1.10,2013-03-06 09:00:00,
2013-03-06 02:15:00,29.3,10.0,30.43,WSW,254,0.0,-999.0,45,-99.99,,,0.00,weatherlink.com 1.10,2013-03-06 09:15:00,
2013-03-06 02:30:00,29.5,8.0,30.43,WSW,254,0.0,-999.0,41,-99.99,,,0.00,weatherlink.com 1.10,2013-03-06 09:30:00,
2013-03-06 02:45:00,29.5,8.0,30.40,WSW,254,0.0,-999.0,40,-99.99,,,0.00,weatherlink.com 1.10,2013-03-06 09:45:00,
2013-03-06 03:00:00,29.0,10.0,30.39,WSW,254,0.0,-999.0,45,-99.99,,,0.00,weatherlink.com 1.10,2013-03-06 10:00:00,
2013-03-06 03:15:00,29.1,10.0,30.40,WSW,254,0.0,-999.0,44,-99.99,,,0.00,weatherlink.com 1.10,2013-03-06 10:15:00,
2013-03-06 03:30:00,29.3,9.0,30.40,WSW,254,0.0,-999.0,42,-99.99,,,0.00,weatherlink.com 1.10,2013-03-06 10:30:00,
2013-03-06 03:45:00,29.3,10.0,30.39,WSW,254,0.0,-999.0,44,-99.99,,,0.00,weatherlink.com 1.10,2013-03-06 10:45:00,
2013-03-06 04:00:00,28.8,12.0,30.39,WSW,254,0.0,-999.0,50,-99.99,,,0.00,weatherlink.com 1.10,2013-03-06 11:00:00,
2013-03-06 04:15:00,29.5,11.0,30.44,WSW,254,0.0,-999.0,47,-99.99,,,0.00,weatherlink.com 1.10,2013-03-06 11:15:00,
2013-03-06 04:30:00,28.8,11.0,30.42,WSW,254,0.0,-999.0,47,-99.99,,,0.00,weatherlink.com 1.10,2013-03-06 11:30:00,
2013-03-06 04:45:00,29.4,8.0,30.44,WSW,254,0.0,-999.0,41,-99.99,,,0.00,weatherlink.com 1.10,2013-03-06 11:45:00,
2013-03-06 05:00:00,29.5,10.0,30.42,WSW,254,0.0,-999.0,44,-99.99,,,0.00,weatherlink.com 1.10,2013-03-06 12:00:00,
2013-03-06 05:15:00,28.5,11.0,30.45,WSW,254,0.0,-999.0,49,-99.99,,,0.00,weatherlink.com 1.10,2013-03-06 12:15:00,
2013-03-06 05:30:00,28.2,9.0,30.47,WSW,254,0.0,-999.0,45,-99.99,,,0.00,weatherlink.com 1.10,2013-03-06 12:30:00,
2013-03-06 05:45:00,28.4,11.0,30.47,WSW,254,0.0,-999.0,48,-99.99,,,0.00,weatherlink.com 1.10,2013-03-06 12:45:00,
2013-03-06 06:00:00,28.5,10.0,30.47,WSW,254,0.0,-999.0,46,-99.99,,,0.00,weatherlink.com 1.10,2013-03-06 13:00:00,
2013-03-06 06:15:00,-999.0,-99.9,30.51,North,-999,-999.0,-999.0,-999,-99.99,,,0.00,weatherlink.com 1.10,2013-03-06 13:15:00,
2013-03-06 06:30:00,-999.0,-99.9,30.38,North,-999,-999.0,-999.0,-999,-99.99,,,0.00,weatherlink.com 1.10,2013-03-06 13:30:00,
2013-03-06 06:45:00,28.5,11.0,30.38,WSW,254,0.0,-999.0,49,-99.99,,,0.00,weatherlink.com 1.10,2013-03-06 13:45:00,
2013-03-06 07:00:00,28.7,10.0,30.51,WSW,254,0.0,-999.0,46,-99.99,,,0.00,weatherlink.com 1.10,2013-03-06 14:00:00,
2013-03-06 07:15:00,29.5,12.0,30.51,WSW,254,0.0,-999.0,48,-99.99,,,0.00,weatherlink.com 1.10,2013-03-06 14:15:00,
2013-03-06 07:30:00,31.6,12.0,30.51,WSW,254,0.0,-999.0,45,-99.99,,,0.00,weatherlink.com 1.10,2013-03-06 14:30:00,
2013-03-06 07:45:00,33.5,11.0,30.49,WSW,254,0.0,-999.0,40,-99.99,,,0.00,weatherlink.com 1.10,2013-03-06 14:45:00,
2013-03-06 08:00:00,35.3,12.0,30.48,WSW,254,0.0,-999.0,38,-99.99,,,0.00,weatherlink.com 1.10,2013-03-06 15:00:00,
2013-03-06 08:15:00,38.5,14.0,30.48,WSW,254,1.0,-999.0,36,-99.99,,,0.00,weatherlink.com 1.10,2013-03-06 15:15:00,
2013-03-06 08:30:00,39.3,15.0,30.47,WSW,239,0.0,-999.0,37,-99.99,,,0.00,weatherlink.com 1.10,2013-03-06 15:30:00,
2013-03-06 08:45:00,39.3,14.0,30.47,WSW,239,2.0,-999.0,36,-99.99,,,0.00,weatherlink.com 1.10,2013-03-06 15:45:00,
2013-03-06 09:00:00,41.6,16.0,30.45,WSW,237,0.0,-999.0,35,-99.99,,,0.00,weatherlink.com 1.10,2013-03-06 16:00:00,
2013-03-06 09:15:00,42.2,16.0,30.43,SW,223,0.0,-999.0,34,-99.99,,,0.00,weatherlink.com 1.10,2013-03-06 16:15:00,
2013-03-06 09:30:00,43.1,15.0,30.43,SW,220,0.0,-999.0,32,-99.99,,,0.00,weatherlink.com 1.10,2013-03-06 16:30:00,
2013-03-06 09:45:00,44.3,15.0,30.43,South,169,0.0,-999.0,31,-99.99,,,0.00,weatherlink.com 1.10,2013-03-06 16:45:00,
2013-03-06 10:00:00,45.7,15.0,30.41,SSE,165,0.0,-999.0,29,-99.99,,,0.00,weatherlink.com 1.10,2013-03-06 17:00:00,
2013-03-06 10:15:00,46.7,15.0,30.27,East,98,3.0,-999.0,28,-99.99,,,0.00,weatherlink.com 1.10,2013-03-06 17:15:00,
2013-03-06 10:30:00,47.4,15.0,30.25,South,182,6.0,-999.0,27,-99.99,,,0.00,weatherlink.com 1.10,2013-03-06 17:30:00,
2013-03-06 10:45:00,47.4,15.0,30.25,ESE,104,1.0,-999.0,27,-99.99,,,0.00,weatherlink.com 1.10,2013-03-06 17:45:00,
2013-03-06 11:00:00,49.5,17.0,30.24,SSW,194,1.0,-999.0,27,-99.99,,,0.00,weatherlink.com 1.10,2013-03-06 18:00:00,
2013-03-06 11:16:00,49.4,17.0,30.18,ESE,107,2.0,-999.0,28,-99.99,,,0.00,weatherlink.com 1.10,2013-03-06 18:16:00,
2013-03-06 11:31:00,49.4,16.0,30.19,South,189,3.0,-999.0,26,-99.99,,,0.00,weatherlink.com 1.10,2013-03-06 18:31:00,
2013-03-06 11:46:00,49.6,18.0,30.19,West,261,10.0,-999.0,28,-99.99,,,0.00,weatherlink.com 1.10,2013-03-06 18:46:00,
2013-03-06 12:01:00,50.1,18.0,30.16,South,175,7.0,-999.0,28,-99.99,,,0.00,weatherlink.com 1.10,2013-03-06 19:01:00,
2013-03-06 12:16:00,-999.0,-99.9,30.32,North,-999,-999.0,-999.0,-999,-99.99,,,0.00,weatherlink.com 1.10,2013-03-06 19:16:00,
2013-03-06 12:31:00,51.4,17.0,30.42,South,180,6.0,-999.0,26,-99.99,,,0.00,weatherlink.com 1.10,2013-03-06 19:31:00,
2013-03-06 12:46:00,51.0,17.0,30.30,SW,224,5.0,-999.0,26,-99.99,,,0.00,weatherlink.com 1.10,2013-03-06 19:46:00,
2013-03-06 13:01:00,51.4,17.0,30.30,SSE,160,3.0,-999.0,26,-99.99,,,0.00,weatherlink.com 1.10,2013-03-06 20:01:00,
2013-03-06 13:16:00,51.6,18.0,30.30,SE,141,7.0,-999.0,26,-99.99,,,0.00,weatherlink.com 1.10,2013-03-06 20:16:00,
2013-03-06 13:31:00,50.4,18.0,30.29,South,176,5.0,-999.0,28,-99.99,,,0.00,weatherlink.com 1.10,2013-03-06 20:31:00,
2013-03-06 13:46:00,50.5,18.0,30.29,SW,214,2.0,-999.0,28,-99.99,,,0.00,weatherlink.com 1.10,2013-03-06 20:46:00,
2013-03-06 14:01:00,50.5,18.0,30.27,SSW,211,3.0,-999.0,28,-99.99,,,0.00,weatherlink.com 1.10,2013-03-06 21:01:00,
2013-03-06 14:16:00,50.8,19.0,30.27,South,183,7.0,-999.0,28,-99.99,,,0.00,weatherlink.com 1.10,2013-03-06 21:16:00,
2013-03-06 14:31:00,52.6,18.0,30.26,SW,215,5.0,-999.0,25,-99.99,,,0.00,weatherlink.com 1.10,2013-03-06 21:31:00,
2013-03-06 14:46:00,53.6,17.0,30.24,South,191,6.0,-999.0,24,-99.99,,,0.00,weatherlink.com 1.10,2013-03-06 21:46:00,
2013-03-06 15:01:00,54.5,19.0,30.22,East,94,3.0,-999.0,25,-99.99,,,0.00,weatherlink.com 1.10,2013-03-06 22:01:00,
2013-03-06 15:16:00,53.2,18.0,30.22,ESE,108,0.0,-999.0,25,-99.99,,,0.00,weatherlink.com 1.10,2013-03-06 22:16:00,
2013-03-06 15:31:00,53.2,19.0,30.24,South,172,1.0,-999.0,26,-99.99,,,0.00,weatherlink.com 1.10,2013-03-06 22:31:00,
2013-03-06 15:46:00,54.2,19.0,30.24,SE,131,0.0,-999.0,25,-99.99,,,0.00,weatherlink.com 1.10,2013-03-06 22:46:00,
2013-03-06 16:01:00,57.0,19.0,30.21,SSE,156,0.0,-999.0,23,-99.99,,,0.00,weatherlink.com 1.10,2013-03-06 23:01:00,
2013-03-06 16:16:00,55.3,18.0,30.21,WSW,241,4.0,-999.0,23,-99.99,,,0.00,weatherlink.com 1.10,2013-03-06 23:16:00,
2013-03-06 16:31:00,53.2,18.0,30.23,SSW,204,1.0,-999.0,25,-99.99,,,0.00,weatherlink.com 1.10,2013-03-06 23:31:00,
2013-03-06 16:46:00,49.9,16.0,30.24,SW,231,1.0,-999.0,26,-99.99,,,0.00,weatherlink.com 1.10,2013-03-06 23:46:00,
2013-03-06 17:01:00,48.6,16.0,30.27,SW,231,1.0,-999.0,27,-99.99,,,0.00,weatherlink.com 1.10,2013-03-07 00:01:00,
2013-03-06 17:16:00,47.1,14.0,30.29,WSW,238,1.0,-999.0,26,-99.99,,,0.00,weatherlink.com 1.10,2013-03-07 00:16:00,
2013-03-06 17:31:00,46.0,14.0,30.29,WSW,239,1.0,-999.0,28,-99.99,,,0.00,weatherlink.com 1.10,2013-03-07 00:31:00,
2013-03-06 17:46:00,44.2,13.0,30.31,WSW,239,0.0,-999.0,28,-99.99,,,0.00,weatherlink.com 1.10,2013-03-07 00:46:00,
2013-03-06 18:01:00,42.9,17.0,30.31,WSW,239,0.0,-999.0,35,-99.99,,,0.00,weatherlink.com 1.10,2013-03-07 01:01:00,
2013-03-06 18:16:00,42.1,17.0,30.32,WSW,239,0.0,-999.0,37,-99.99,,,0.00,weatherlink.com 1.10,2013-03-07 01:16:00,
2013-03-06 18:31:00,41.2,19.0,30.32,WSW,239,0.0,-999.0,41,-99.99,,,0.00,weatherlink.com 1.10,2013-03-07 01:31:00,
2013-03-06 18:46:00,40.1,18.0,30.34,WSW,239,0.0,-999.0,41,-99.99,,,0.00,weatherlink.com 1.10,2013-03-07 01:46:00,
2013-03-06 19:16:00,40.1,16.0,30.29,WSW,239,0.0,-999.0,38,-99.99,,,0.00,weatherlink.com 1.10,2013-03-07 02:16:00,
2013-03-06 19:30:00,39.6,16.0,30.29,WSW,239,0.0,-999.0,39,-99.99,,,0.00,weatherlink.com 1.10,2013-03-07 02:30:00,
2013-03-06 19:45:00,39.1,15.0,30.30,WSW,239,0.0,-999.0,38,-99.99,,,0.00,weatherlink.com 1.10,2013-03-07 02:45:00,
2013-03-06 20:01:00,38.6,17.0,30.27,WSW,239,0.0,-999.0,41,-99.99,,,0.00,weatherlink.com 1.10,2013-03-07 03:01:00,
2013-03-06 20:15:00,39.3,17.0,30.27,WSW,239,0.0,-999.0,41,-99.99,,,0.00,weatherlink.com 1.10,2013-03-07 03:15:00,
2013-03-06 20:30:00,38.2,16.0,30.26,WSW,239,0.0,-999.0,40,-99.99,,,0.00,weatherlink.com 1.10,2013-03-07 03:30:00,
2013-03-06 20:45:00,37.9,17.0,30.27,WSW,239,0.0,-999.0,42,-99.99,,,0.00,weatherlink.com 1.10,2013-03-07 03:45:00,
2013-03-06 21:00:00,36.8,18.0,30.27,WSW,239,1.0,-999.0,46,-99.99,,,0.00,weatherlink.com 1.10,2013-03-07 04:00:00,
2013-03-06 21:15:00,-999.0,-99.9,30.25,North,-999,-999.0,-999.0,-999,-99.99,,,0.00,weatherlink.com 1.10,2013-03-07 04:15:00,
2013-03-06 21:30:00,-999.0,-99.9,30.14,North,-999,-999.0,-999.0,-999,-99.99,,,0.00,weatherlink.com 1.10,2013-03-07 04:30:00,
2013-03-06 21:46:00,-999.0,-99.9,30.14,North,-999,-999.0,-999.0,-999,-99.99,,,0.00,weatherlink.com 1.10,2013-03-07 04:46:00,
2013-03-06 22:00:00,-999.0,-99.9,30.14,North,-999,-999.0,-999.0,-999,-99.99,,,0.00,weatherlink.com 1.10,2013-03-07 05:00:00,
2013-03-06 22:15:00,-999.0,-99.9,30.08,North,-999,-999.0,-999.0,-999,-99.99,,,0.00,weatherlink.com 1.10,2013-03-07 05:15:00,
2013-03-06 22:30:00,-999.0,-99.9,30.08,North,-999,-999.0,-999.0,-999,-99.99,,,0.00,weatherlink.com 1.10,2013-03-07 05:30:00,
2013-03-06 22:45:00,-999.0,-99.9,30.08,North,-999,-999.0,-999.0,-999,-99.99,,,0.00,weatherlink.com 1.10,2013-03-07 05:45:00,
2013-03-06 23:00:00,-999.0,-99.9,30.08,North,-999,-999.0,-999.0,-999,-99.99,,,0.00,weatherlink.com 1.10,2013-03-07 06:00:00,
2013-03-06 23:15:00,-999.0,-99.9,30.05,North,-999,-999.0,-999.0,-999,-99.99,,,0.00,weatherlink.com 1.10,2013-03-07 06:15:00,
2013-03-06 23:30:00,-999.0,-99.9,30.05,North,-999,-999.0,-999.0,-999,-99.99,,,0.00,weatherlink.com 1.10,2013-03-07 06:30:00,
2013-03-06 23:45:00,34.4,-99.9,30.06,WSW,239,0.0,-999.0,-999,-99.99,,,0.00,weatherlink.com 1.10,2013-03-07 06:45:00,